sensor_id;sensor_type;location;lat;lon;timestamp;P1;durP1;ratioP1;P2;durP2;ratioP2
72284;SDS011;60220;53.552;10.092;2024-03-23T00:53:57;20.80;;;3.40;;
72284;SDS011;60220;53.552;10.092;2024-03-23T00:56:23;18.50;;;2.83;;
72284;SDS011;60220;53.552;10.092;2024-03-23T00:58:49;16.65;;;2.65;;
72284;SDS011;60220;53.552;10.092;2024-03-23T01:01:16;23.52;;;3.72;;
72284;SDS011;60220;53.552;10.092;2024-03-23T01:03:41;17.73;;;2.80;;
72284;SDS011;60220;53.552;10.092;2024-03-23T01:06:08;21.48;;;2.67;;
72284;SDS011;60220;53.552;10.092;2024-03-23T01:08:34;16.70;;;3.55;;
72284;SDS011;60220;53.552;10.092;2024-03-23T01:11:02;11.93;;;2.50;;
72284;SDS011;60220;53.552;10.092;2024-03-23T01:13:28;18.77;;;2.92;;
72284;SDS011;60220;53.552;10.092;2024-03-23T01:15:55;16.48;;;2.92;;
72284;SDS011;60220;53.552;10.092;2024-03-23T01:18:22;27.77;;;3.08;;
72284;SDS011;60220;53.552;10.092;2024-03-23T01:20:51;12.77;;;2.92;;
72284;SDS011;60220;53.552;10.092;2024-03-23T01:23:19;13.45;;;2.50;;
72284;SDS011;60220;53.552;10.092;2024-03-23T01:25:51;19.25;;;3.20;;
72284;SDS011;60220;53.552;10.092;2024-03-23T01:28:22;19.58;;;3.22;;
72284;SDS011;60220;53.552;10.092;2024-03-23T01:30:48;16.58;;;2.95;;
72284;SDS011;60220;53.552;10.092;2024-03-23T01:33:15;13.73;;;1.98;;
72284;SDS011;60220;53.552;10.092;2024-03-23T01:35:44;21.17;;;2.75;;
72284;SDS011;60220;53.552;10.092;2024-03-23T01:38:09;16.17;;;2.03;;
72284;SDS011;60220;53.552;10.092;2024-03-23T01:40:36;16.55;;;2.97;;
72284;SDS011;60220;53.552;10.092;2024-03-23T01:43:05;15.88;;;2.88;;
72284;SDS011;60220;53.552;10.092;2024-03-23T01:45:35;21.23;;;2.85;;
72284;SDS011;60220;53.552;10.092;2024-03-23T01:48:02;14.25;;;2.30;;
72284;SDS011;60220;53.552;10.092;2024-03-23T01:50:29;10.57;;;2.55;;
72284;SDS011;60220;53.552;10.092;2024-03-23T01:52:58;18.23;;;2.53;;
72284;SDS011;60220;53.552;10.092;2024-03-23T01:55:26;11.68;;;2.80;;
72284;SDS011;60220;53.552;10.092;2024-03-23T01:57:52;17.98;;;3.70;;
72284;SDS011;60220;53.552;10.092;2024-03-23T02:00:19;16.65;;;2.50;;
72284;SDS011;60220;53.552;10.092;2024-03-23T02:02:46;17.77;;;2.55;;
72284;SDS011;60220;53.552;10.092;2024-03-23T02:05:13;21.65;;;3.20;;
72284;SDS011;60220;53.552;10.092;2024-03-23T02:07:39;15.25;;;2.42;;
72284;SDS011;60220;53.552;10.092;2024-03-23T02:10:09;15.32;;;2.90;;
72284;SDS011;60220;53.552;10.092;2024-03-23T02:12:38;15.20;;;2.17;;
72284;SDS011;60220;53.552;10.092;2024-03-23T02:15:05;19.45;;;2.30;;
72284;SDS011;60220;53.552;10.092;2024-03-23T02:17:33;23.25;;;2.88;;
72284;SDS011;60220;53.552;10.092;2024-03-23T02:20:05;14.30;;;2.25;;
72284;SDS011;60220;53.552;10.092;2024-03-23T02:22:35;11.60;;;2.67;;
72284;SDS011;60220;53.552;10.092;2024-03-23T02:25:04;19.85;;;1.98;;
72284;SDS011;60220;53.552;10.092;2024-03-23T02:27:31;20.17;;;3.33;;
72284;SDS011;60220;53.552;10.092;2024-03-23T02:29:58;15.48;;;2.80;;
72284;SDS011;60220;53.552;10.092;2024-03-23T02:32:23;19.08;;;2.05;;
72284;SDS011;60220;53.552;10.092;2024-03-23T02:34:50;24.63;;;3.00;;
72284;SDS011;60220;53.552;10.092;2024-03-23T02:37:15;30.73;;;3.85;;
72284;SDS011;60220;53.552;10.092;2024-03-23T02:39:42;21.38;;;2.72;;
72284;SDS011;60220;53.552;10.092;2024-03-23T02:42:09;22.08;;;3.40;;
72284;SDS011;60220;53.552;10.092;2024-03-23T02:44:36;17.92;;;1.95;;
72284;SDS011;60220;53.552;10.092;2024-03-23T02:47:01;28.33;;;2.78;;
72284;SDS011;60220;53.552;10.092;2024-03-23T02:49:28;19.08;;;2.90;;
72284;SDS011;60220;53.552;10.092;2024-03-23T02:51:54;12.00;;;2.15;;
72284;SDS011;60220;53.552;10.092;2024-03-23T02:54:20;20.88;;;2.10;;
72284;SDS011;60220;53.552;10.092;2024-03-23T02:56:46;14.23;;;2.70;;
72284;SDS011;60220;53.552;10.092;2024-03-23T02:59:14;23.25;;;3.00;;
72284;SDS011;60220;53.552;10.092;2024-03-23T03:01:40;14.15;;;2.95;;
72284;SDS011;60220;53.552;10.092;2024-03-23T03:04:06;15.60;;;2.75;;
72284;SDS011;60220;53.552;10.092;2024-03-23T03:06:32;17.02;;;2.45;;
72284;SDS011;60220;53.552;10.092;2024-03-23T03:08:59;15.88;;;3.05;;
72284;SDS011;60220;53.552;10.092;2024-03-23T03:11:24;18.95;;;2.67;;
72284;SDS011;60220;53.552;10.092;2024-03-23T03:13:51;21.95;;;3.10;;
72284;SDS011;60220;53.552;10.092;2024-03-23T03:16:18;16.25;;;2.50;;
72284;SDS011;60220;53.552;10.092;2024-03-23T03:18:47;14.20;;;3.38;;
72284;SDS011;60220;53.552;10.092;2024-03-23T03:21:15;26.95;;;3.65;;
72284;SDS011;60220;53.552;10.092;2024-03-23T03:23:42;23.88;;;2.65;;
72284;SDS011;60220;53.552;10.092;2024-03-23T03:26:09;17.05;;;2.55;;
72284;SDS011;60220;53.552;10.092;2024-03-23T03:28:36;22.20;;;3.00;;
72284;SDS011;60220;53.552;10.092;2024-03-23T03:31:01;12.35;;;2.85;;
72284;SDS011;60220;53.552;10.092;2024-03-23T03:33:30;17.20;;;2.55;;
72284;SDS011;60220;53.552;10.092;2024-03-23T03:35:55;8.25;;;2.05;;
72284;SDS011;60220;53.552;10.092;2024-03-23T03:38:22;17.58;;;2.78;;
72284;SDS011;60220;53.552;10.092;2024-03-23T03:40:48;18.45;;;2.33;;
72284;SDS011;60220;53.552;10.092;2024-03-23T03:43:14;21.63;;;3.05;;
72284;SDS011;60220;53.552;10.092;2024-03-23T03:45:42;17.98;;;2.67;;
72284;SDS011;60220;53.552;10.092;2024-03-23T03:48:17;21.40;;;2.65;;
72284;SDS011;60220;53.552;10.092;2024-03-23T03:50:44;11.68;;;2.40;;
72284;SDS011;60220;53.552;10.092;2024-03-23T03:53:13;13.57;;;2.38;;
72284;SDS011;60220;53.552;10.092;2024-03-23T03:55:38;10.98;;;1.95;;
72284;SDS011;60220;53.552;10.092;2024-03-23T03:58:05;16.27;;;2.03;;
72284;SDS011;60220;53.552;10.092;2024-03-23T04:00:31;20.52;;;2.45;;
72284;SDS011;60220;53.552;10.092;2024-03-23T04:02:57;8.13;;;1.95;;
72284;SDS011;60220;53.552;10.092;2024-03-23T04:05:23;15.23;;;2.38;;
72284;SDS011;60220;53.552;10.092;2024-03-23T04:07:51;24.98;;;3.08;;
72284;SDS011;60220;53.552;10.092;2024-03-23T04:10:19;12.85;;;2.67;;
72284;SDS011;60220;53.552;10.092;2024-03-23T04:12:46;16.92;;;2.30;;
72284;SDS011;60220;53.552;10.092;2024-03-23T04:15:12;19.05;;;2.45;;
72284;SDS011;60220;53.552;10.092;2024-03-23T04:17:39;18.95;;;2.67;;
72284;SDS011;60220;53.552;10.092;2024-03-23T04:20:08;18.23;;;2.80;;
72284;SDS011;60220;53.552;10.092;2024-03-23T04:22:41;11.63;;;1.80;;
72284;SDS011;60220;53.552;10.092;2024-03-23T04:25:11;7.10;;;1.80;;
72284;SDS011;60220;53.552;10.092;2024-03-23T04:27:40;16.33;;;2.50;;
72284;SDS011;60220;53.552;10.092;2024-03-23T04:30:07;16.50;;;2.35;;
72284;SDS011;60220;53.552;10.092;2024-03-23T04:32:36;12.50;;;2.33;;
72284;SDS011;60220;53.552;10.092;2024-03-23T04:35:02;11.40;;;2.33;;
72284;SDS011;60220;53.552;10.092;2024-03-23T04:37:33;20.33;;;2.38;;
72284;SDS011;60220;53.552;10.092;2024-03-23T04:40:00;21.00;;;3.33;;
72284;SDS011;60220;53.552;10.092;2024-03-23T04:42:28;13.02;;;3.13;;
72284;SDS011;60220;53.552;10.092;2024-03-23T04:44:55;21.15;;;3.50;;
72284;SDS011;60220;53.552;10.092;2024-03-23T04:47:22;15.18;;;3.45;;
72284;SDS011;60220;53.552;10.092;2024-03-23T04:49:49;13.02;;;2.30;;
72284;SDS011;60220;53.552;10.092;2024-03-23T04:52:15;6.97;;;2.10;;
72284;SDS011;60220;53.552;10.092;2024-03-23T04:54:44;14.57;;;3.00;;
72284;SDS011;60220;53.552;10.092;2024-03-23T04:57:11;11.82;;;2.65;;
72284;SDS011;60220;53.552;10.092;2024-03-23T04:59:38;14.93;;;3.17;;
72284;SDS011;60220;53.552;10.092;2024-03-23T05:02:07;15.43;;;2.30;;
72284;SDS011;60220;53.552;10.092;2024-03-23T05:04:33;13.30;;;2.53;;
72284;SDS011;60220;53.552;10.092;2024-03-23T05:06:59;12.27;;;2.50;;
72284;SDS011;60220;53.552;10.092;2024-03-23T05:09:25;13.60;;;2.45;;
72284;SDS011;60220;53.552;10.092;2024-03-23T05:11:57;15.25;;;2.50;;
72284;SDS011;60220;53.552;10.092;2024-03-23T05:14:23;12.43;;;2.40;;
72284;SDS011;60220;53.552;10.092;2024-03-23T05:16:51;12.57;;;1.98;;
72284;SDS011;60220;53.552;10.092;2024-03-23T05:19:16;12.68;;;2.70;;
72284;SDS011;60220;53.552;10.092;2024-03-23T05:21:45;13.70;;;2.70;;
72284;SDS011;60220;53.552;10.092;2024-03-23T05:24:13;20.23;;;2.22;;
72284;SDS011;60220;53.552;10.092;2024-03-23T05:26:40;17.15;;;2.25;;
72284;SDS011;60220;53.552;10.092;2024-03-23T05:29:05;13.45;;;1.75;;
72284;SDS011;60220;53.552;10.092;2024-03-23T05:31:36;19.50;;;3.03;;
72284;SDS011;60220;53.552;10.092;2024-03-23T05:34:05;18.35;;;3.00;;
72284;SDS011;60220;53.552;10.092;2024-03-23T05:36:34;12.40;;;2.55;;
72284;SDS011;60220;53.552;10.092;2024-03-23T05:39:01;9.35;;;1.52;;
72284;SDS011;60220;53.552;10.092;2024-03-23T05:41:27;16.58;;;3.35;;
72284;SDS011;60220;53.552;10.092;2024-03-23T05:43:56;18.98;;;2.70;;
72284;SDS011;60220;53.552;10.092;2024-03-23T05:46:23;12.45;;;2.67;;
72284;SDS011;60220;53.552;10.092;2024-03-23T05:48:49;26.73;;;2.83;;
72284;SDS011;60220;53.552;10.092;2024-03-23T05:51:17;18.55;;;2.40;;
72284;SDS011;60220;53.552;10.092;2024-03-23T05:53:43;14.25;;;2.20;;
72284;SDS011;60220;53.552;10.092;2024-03-23T05:56:10;20.70;;;2.85;;
72284;SDS011;60220;53.552;10.092;2024-03-23T05:58:36;20.08;;;1.92;;
72284;SDS011;60220;53.552;10.092;2024-03-23T06:01:03;10.55;;;2.20;;
72284;SDS011;60220;53.552;10.092;2024-03-23T06:03:28;17.30;;;2.83;;
72284;SDS011;60220;53.552;10.092;2024-03-23T06:05:55;38.83;;;3.25;;
72284;SDS011;60220;53.552;10.092;2024-03-23T06:08:22;17.02;;;2.65;;
72284;SDS011;60220;53.552;10.092;2024-03-23T06:10:50;14.30;;;2.63;;
72284;SDS011;60220;53.552;10.092;2024-03-23T06:13:18;16.40;;;2.22;;
72284;SDS011;60220;53.552;10.092;2024-03-23T06:15:45;9.23;;;1.90;;
72284;SDS011;60220;53.552;10.092;2024-03-23T06:18:11;11.05;;;2.00;;
72284;SDS011;60220;53.552;10.092;2024-03-23T06:20:38;20.35;;;2.83;;
72284;SDS011;60220;53.552;10.092;2024-03-23T06:23:04;22.08;;;2.90;;
72284;SDS011;60220;53.552;10.092;2024-03-23T06:25:32;14.70;;;2.70;;
72284;SDS011;60220;53.552;10.092;2024-03-23T06:27:58;10.77;;;2.47;;
72284;SDS011;60220;53.552;10.092;2024-03-23T06:30:26;13.55;;;2.80;;
72284;SDS011;60220;53.552;10.092;2024-03-23T06:32:52;21.80;;;2.80;;
72284;SDS011;60220;53.552;10.092;2024-03-23T06:35:21;17.55;;;2.55;;
72284;SDS011;60220;53.552;10.092;2024-03-23T06:37:49;18.45;;;3.15;;
72284;SDS011;60220;53.552;10.092;2024-03-23T06:40:16;14.98;;;2.15;;
72284;SDS011;60220;53.552;10.092;2024-03-23T06:42:43;13.85;;;3.17;;
72284;SDS011;60220;53.552;10.092;2024-03-23T06:45:09;13.55;;;2.42;;
72284;SDS011;60220;53.552;10.092;2024-03-23T06:47:35;18.63;;;2.80;;
72284;SDS011;60220;53.552;10.092;2024-03-23T06:50:02;28.15;;;4.03;;
72284;SDS011;60220;53.552;10.092;2024-03-23T06:52:28;16.85;;;3.03;;
72284;SDS011;60220;53.552;10.092;2024-03-23T06:54:54;26.55;;;2.50;;
72284;SDS011;60220;53.552;10.092;2024-03-23T06:57:20;14.38;;;2.28;;
72284;SDS011;60220;53.552;10.092;2024-03-23T06:59:48;27.80;;;2.97;;
72284;SDS011;60220;53.552;10.092;2024-03-23T07:02:14;10.90;;;3.22;;
72284;SDS011;60220;53.552;10.092;2024-03-23T07:04:41;23.38;;;2.65;;
72284;SDS011;60220;53.552;10.092;2024-03-23T07:07:07;14.20;;;2.67;;
72284;SDS011;60220;53.552;10.092;2024-03-23T07:09:34;16.35;;;1.95;;
72284;SDS011;60220;53.552;10.092;2024-03-23T07:11:59;10.77;;;2.40;;
72284;SDS011;60220;53.552;10.092;2024-03-23T07:14:28;9.75;;;1.70;;
72284;SDS011;60220;53.552;10.092;2024-03-23T07:16:55;8.95;;;3.00;;
72284;SDS011;60220;53.552;10.092;2024-03-23T07:19:24;12.23;;;2.17;;
72284;SDS011;60220;53.552;10.092;2024-03-23T07:21:50;11.52;;;2.00;;
72284;SDS011;60220;53.552;10.092;2024-03-23T07:24:19;19.73;;;3.08;;
72284;SDS011;60220;53.552;10.092;2024-03-23T07:26:45;26.13;;;4.47;;
72284;SDS011;60220;53.552;10.092;2024-03-23T07:29:12;14.10;;;2.80;;
72284;SDS011;60220;53.552;10.092;2024-03-23T07:31:38;13.75;;;2.50;;
72284;SDS011;60220;53.552;10.092;2024-03-23T07:34:06;18.92;;;2.38;;
72284;SDS011;60220;53.552;10.092;2024-03-23T07:36:34;15.68;;;3.17;;
72284;SDS011;60220;53.552;10.092;2024-03-23T07:39:01;15.05;;;3.88;;
72284;SDS011;60220;53.552;10.092;2024-03-23T07:41:26;13.63;;;2.95;;
72284;SDS011;60220;53.552;10.092;2024-03-23T07:43:53;14.25;;;2.70;;
72284;SDS011;60220;53.552;10.092;2024-03-23T07:46:20;14.13;;;2.28;;
72284;SDS011;60220;53.552;10.092;2024-03-23T07:48:47;15.55;;;2.35;;
72284;SDS011;60220;53.552;10.092;2024-03-23T07:51:15;15.45;;;2.72;;
72284;SDS011;60220;53.552;10.092;2024-03-23T07:53:43;9.88;;;2.47;;
72284;SDS011;60220;53.552;10.092;2024-03-23T07:56:09;11.57;;;2.13;;
72284;SDS011;60220;53.552;10.092;2024-03-23T07:58:36;13.95;;;2.33;;
72284;SDS011;60220;53.552;10.092;2024-03-23T08:01:05;18.90;;;3.22;;
72284;SDS011;60220;53.552;10.092;2024-03-23T08:03:34;11.00;;;2.72;;
72284;SDS011;60220;53.552;10.092;2024-03-23T08:06:06;8.65;;;1.77;;
72284;SDS011;60220;53.552;10.092;2024-03-23T08:08:34;19.98;;;2.22;;
72284;SDS011;60220;53.552;10.092;2024-03-23T08:11:00;12.48;;;2.35;;
72284;SDS011;60220;53.552;10.092;2024-03-23T08:13:27;9.88;;;2.10;;
72284;SDS011;60220;53.552;10.092;2024-03-23T08:15:55;11.20;;;2.40;;
72284;SDS011;60220;53.552;10.092;2024-03-23T08:18:23;13.68;;;2.05;;
72284;SDS011;60220;53.552;10.092;2024-03-23T08:20:57;5.78;;;1.85;;
72284;SDS011;60220;53.552;10.092;2024-03-23T08:23:24;23.45;;;3.33;;
72284;SDS011;60220;53.552;10.092;2024-03-23T08:25:52;8.63;;;2.22;;
72284;SDS011;60220;53.552;10.092;2024-03-23T08:28:19;12.90;;;2.20;;
72284;SDS011;60220;53.552;10.092;2024-03-23T08:30:44;14.93;;;2.45;;
72284;SDS011;60220;53.552;10.092;2024-03-23T08:33:11;14.75;;;2.10;;
72284;SDS011;60220;53.552;10.092;2024-03-23T08:35:37;19.45;;;2.63;;
72284;SDS011;60220;53.552;10.092;2024-03-23T08:38:05;12.20;;;2.28;;
72284;SDS011;60220;53.552;10.092;2024-03-23T08:40:33;18.90;;;2.53;;
72284;SDS011;60220;53.552;10.092;2024-03-23T08:43:01;8.18;;;2.17;;
72284;SDS011;60220;53.552;10.092;2024-03-23T08:45:26;19.13;;;2.78;;
72284;SDS011;60220;53.552;10.092;2024-03-23T08:47:55;11.77;;;1.95;;
72284;SDS011;60220;53.552;10.092;2024-03-23T08:50:21;21.85;;;2.60;;
72284;SDS011;60220;53.552;10.092;2024-03-23T08:52:48;10.75;;;2.42;;
72284;SDS011;60220;53.552;10.092;2024-03-23T08:55:16;9.68;;;1.88;;
72284;SDS011;60220;53.552;10.092;2024-03-23T08:57:42;12.15;;;1.88;;
72284;SDS011;60220;53.552;10.092;2024-03-23T09:00:11;13.82;;;2.53;;
72284;SDS011;60220;53.552;10.092;2024-03-23T09:02:38;12.60;;;2.28;;
72284;SDS011;60220;53.552;10.092;2024-03-23T09:05:04;15.95;;;2.47;;
72284;SDS011;60220;53.552;10.092;2024-03-23T09:07:33;6.63;;;1.70;;
72284;SDS011;60220;53.552;10.092;2024-03-23T09:09:59;14.27;;;2.75;;
72284;SDS011;60220;53.552;10.092;2024-03-23T09:12:26;20.17;;;2.45;;
72284;SDS011;60220;53.552;10.092;2024-03-23T09:14:51;15.65;;;2.67;;
72284;SDS011;60220;53.552;10.092;2024-03-23T09:17:20;11.27;;;2.15;;
72284;SDS011;60220;53.552;10.092;2024-03-23T09:19:46;6.30;;;2.00;;
72284;SDS011;60220;53.552;10.092;2024-03-23T09:22:12;9.95;;;1.95;;
72284;SDS011;60220;53.552;10.092;2024-03-23T09:24:38;5.65;;;1.20;;
72284;SDS011;60220;53.552;10.092;2024-03-23T09:27:05;9.98;;;2.30;;
72284;SDS011;60220;53.552;10.092;2024-03-23T09:29:30;12.27;;;1.67;;
72284;SDS011;60220;53.552;10.092;2024-03-23T09:31:59;12.40;;;1.90;;
72284;SDS011;60220;53.552;10.092;2024-03-23T09:34:26;14.45;;;1.75;;
72284;SDS011;60220;53.552;10.092;2024-03-23T09:36:53;4.25;;;1.70;;
72284;SDS011;60220;53.552;10.092;2024-03-23T09:39:19;7.03;;;1.63;;
72284;SDS011;60220;53.552;10.092;2024-03-23T09:41:45;6.57;;;1.42;;
72284;SDS011;60220;53.552;10.092;2024-03-23T09:44:11;10.38;;;1.92;;
72284;SDS011;60220;53.552;10.092;2024-03-23T09:46:40;5.78;;;1.55;;
72284;SDS011;60220;53.552;10.092;2024-03-23T09:49:06;10.95;;;1.70;;
72284;SDS011;60220;53.552;10.092;2024-03-23T09:51:36;10.75;;;1.50;;
72284;SDS011;60220;53.552;10.092;2024-03-23T09:54:02;19.83;;;2.20;;
72284;SDS011;60220;53.552;10.092;2024-03-23T09:56:31;7.22;;;1.30;;
72284;SDS011;60220;53.552;10.092;2024-03-23T09:59:02;7.25;;;2.17;;
72284;SDS011;60220;53.552;10.092;2024-03-23T10:01:29;7.85;;;1.42;;
72284;SDS011;60220;53.552;10.092;2024-03-23T10:03:55;9.35;;;1.50;;
72284;SDS011;60220;53.552;10.092;2024-03-23T10:06:22;14.63;;;1.90;;
72284;SDS011;60220;53.552;10.092;2024-03-23T10:08:51;13.10;;;1.85;;
72284;SDS011;60220;53.552;10.092;2024-03-23T10:11:21;10.55;;;1.20;;
72284;SDS011;60220;53.552;10.092;2024-03-23T10:13:47;16.23;;;3.72;;
72284;SDS011;60220;53.552;10.092;2024-03-23T10:16:23;12.38;;;2.22;;
72284;SDS011;60220;53.552;10.092;2024-03-23T10:18:52;9.75;;;1.42;;
72284;SDS011;60220;53.552;10.092;2024-03-23T10:21:18;9.98;;;1.38;;
72284;SDS011;60220;53.552;10.092;2024-03-23T10:23:44;7.80;;;1.30;;
72284;SDS011;60220;53.552;10.092;2024-03-23T10:26:17;6.97;;;1.90;;
72284;SDS011;60220;53.552;10.092;2024-03-23T10:28:50;9.40;;;2.10;;
72284;SDS011;60220;53.552;10.092;2024-03-23T10:31:24;26.08;;;2.20;;
72284;SDS011;60220;53.552;10.092;2024-03-23T10:33:52;3.08;;;1.20;;
72284;SDS011;60220;53.552;10.092;2024-03-23T10:36:20;3.78;;;0.95;;
72284;SDS011;60220;53.552;10.092;2024-03-23T10:38:47;5.05;;;1.13;;
72284;SDS011;60220;53.552;10.092;2024-03-23T10:41:16;7.07;;;1.20;;
72284;SDS011;60220;53.552;10.092;2024-03-23T10:43:42;5.65;;;1.20;;
72284;SDS011;60220;53.552;10.092;2024-03-23T10:46:11;8.35;;;1.80;;
72284;SDS011;60220;53.552;10.092;2024-03-23T10:48:36;7.82;;;1.27;;
72284;SDS011;60220;53.552;10.092;2024-03-23T10:51:04;5.45;;;1.40;;
72284;SDS011;60220;53.552;10.092;2024-03-23T10:53:32;11.82;;;2.00;;
72284;SDS011;60220;53.552;10.092;2024-03-23T10:56:00;4.85;;;1.15;;
72284;SDS011;60220;53.552;10.092;2024-03-23T10:58:27;9.20;;;1.55;;
72284;SDS011;60220;53.552;10.092;2024-03-23T11:00:57;13.32;;;1.38;;
72284;SDS011;60220;53.552;10.092;2024-03-23T11:03:30;4.97;;;1.20;;
72284;SDS011;60220;53.552;10.092;2024-03-23T11:05:57;14.77;;;3.17;;
72284;SDS011;60220;53.552;10.092;2024-03-23T11:08:30;2.10;;;0.93;;
72284;SDS011;60220;53.552;10.092;2024-03-23T11:11:14;7.63;;;2.03;;
72284;SDS011;60220;53.552;10.092;2024-03-23T11:13:43;2.72;;;1.10;;
72284;SDS011;60220;53.552;10.092;2024-03-23T11:16:13;21.20;;;6.18;;
72284;SDS011;60220;53.552;10.092;2024-03-23T11:18:40;4.55;;;0.95;;
72284;SDS011;60220;53.552;10.092;2024-03-23T11:21:07;6.40;;;1.70;;
72284;SDS011;60220;53.552;10.092;2024-03-23T11:23:33;6.28;;;1.67;;
72284;SDS011;60220;53.552;10.092;2024-03-23T11:25:59;10.10;;;1.95;;
72284;SDS011;60220;53.552;10.092;2024-03-23T11:28:25;7.80;;;1.50;;
72284;SDS011;60220;53.552;10.092;2024-03-23T11:30:53;5.07;;;1.00;;
72284;SDS011;60220;53.552;10.092;2024-03-23T11:33:19;11.32;;;1.23;;
72284;SDS011;60220;53.552;10.092;2024-03-23T11:35:47;13.52;;;1.63;;
72284;SDS011;60220;53.552;10.092;2024-03-23T11:38:13;7.05;;;1.00;;
72284;SDS011;60220;53.552;10.092;2024-03-23T11:40:45;5.50;;;0.80;;
72284;SDS011;60220;53.552;10.092;2024-03-23T11:43:14;3.35;;;1.27;;
72284;SDS011;60220;53.552;10.092;2024-03-23T11:45:44;4.97;;;1.27;;
72284;SDS011;60220;53.552;10.092;2024-03-23T11:48:13;6.07;;;1.55;;
72284;SDS011;60220;53.552;10.092;2024-03-23T11:50:43;8.68;;;1.85;;
72284;SDS011;60220;53.552;10.092;2024-03-23T11:53:12;13.52;;;2.22;;
72284;SDS011;60220;53.552;10.092;2024-03-23T11:55:45;8.00;;;1.20;;
72284;SDS011;60220;53.552;10.092;2024-03-23T11:58:12;6.65;;;1.88;;
72284;SDS011;60220;53.552;10.092;2024-03-23T12:00:40;3.72;;;0.93;;
72284;SDS011;60220;53.552;10.092;2024-03-23T12:03:08;5.70;;;1.63;;
72284;SDS011;60220;53.552;10.092;2024-03-23T12:05:40;7.72;;;1.85;;
72284;SDS011;60220;53.552;10.092;2024-03-23T12:08:15;7.22;;;1.23;;
72284;SDS011;60220;53.552;10.092;2024-03-23T12:10:43;5.25;;;1.02;;
72284;SDS011;60220;53.552;10.092;2024-03-23T12:13:10;9.18;;;1.40;;
72284;SDS011;60220;53.552;10.092;2024-03-23T12:15:37;3.13;;;0.90;;
72284;SDS011;60220;53.552;10.092;2024-03-23T12:18:08;1.45;;;0.38;;
72284;SDS011;60220;53.552;10.092;2024-03-23T12:20:35;7.07;;;3.22;;
72284;SDS011;60220;53.552;10.092;2024-03-23T12:23:06;1.70;;;0.90;;
72284;SDS011;60220;53.552;10.092;2024-03-23T12:25:34;1.40;;;0.75;;
72284;SDS011;60220;53.552;10.092;2024-03-23T12:28:03;0.63;;;0.40;;
72284;SDS011;60220;53.552;10.092;2024-03-23T12:30:31;2.33;;;0.60;;
72284;SDS011;60220;53.552;10.092;2024-03-23T12:32:57;2.15;;;0.68;;
72284;SDS011;60220;53.552;10.092;2024-03-23T12:35:24;3.28;;;0.50;;
72284;SDS011;60220;53.552;10.092;2024-03-23T12:37:49;0.52;;;0.40;;
72284;SDS011;60220;53.552;10.092;2024-03-23T12:40:17;2.42;;;0.30;;
72284;SDS011;60220;53.552;10.092;2024-03-23T12:42:43;2.67;;;0.70;;
72284;SDS011;60220;53.552;10.092;2024-03-23T12:45:10;3.83;;;0.70;;
72284;SDS011;60220;53.552;10.092;2024-03-23T12:47:36;2.75;;;1.00;;
72284;SDS011;60220;53.552;10.092;2024-03-23T12:50:02;0.70;;;0.60;;
72284;SDS011;60220;53.552;10.092;2024-03-23T12:52:31;0.68;;;0.30;;
72284;SDS011;60220;53.552;10.092;2024-03-23T12:54:58;10.77;;;3.78;;
72284;SDS011;60220;53.552;10.092;2024-03-23T12:57:25;5.88;;;1.88;;
72284;SDS011;60220;53.552;10.092;2024-03-23T12:59:52;0.22;;;0.22;;
72284;SDS011;60220;53.552;10.092;2024-03-23T13:02:18;1.85;;;0.70;;
72284;SDS011;60220;53.552;10.092;2024-03-23T13:04:46;1.75;;;1.20;;
72284;SDS011;60220;53.552;10.092;2024-03-23T13:07:14;1.45;;;0.40;;
72284;SDS011;60220;53.552;10.092;2024-03-23T13:09:41;1.08;;;0.50;;
72284;SDS011;60220;53.552;10.092;2024-03-23T13:12:07;0.57;;;0.47;;
72284;SDS011;60220;53.552;10.092;2024-03-23T13:14:35;1.17;;;0.40;;
72284;SDS011;60220;53.552;10.092;2024-03-23T13:17:01;5.55;;;0.90;;
72284;SDS011;60220;53.552;10.092;2024-03-23T13:19:29;5.65;;;0.98;;
72284;SDS011;60220;53.552;10.092;2024-03-23T13:21:56;1.25;;;0.50;;
72284;SDS011;60220;53.552;10.092;2024-03-23T13:24:26;4.70;;;0.80;;
72284;SDS011;60220;53.552;10.092;2024-03-23T13:26:53;2.67;;;0.95;;
72284;SDS011;60220;53.552;10.092;2024-03-23T13:29:20;2.65;;;0.75;;
72284;SDS011;60220;53.552;10.092;2024-03-23T13:31:49;8.15;;;1.50;;
72284;SDS011;60220;53.552;10.092;2024-03-23T13:34:19;4.05;;;1.08;;
72284;SDS011;60220;53.552;10.092;2024-03-23T13:36:45;1.65;;;0.82;;
72284;SDS011;60220;53.552;10.092;2024-03-23T13:39:13;5.80;;;0.75;;
72284;SDS011;60220;53.552;10.092;2024-03-23T13:41:43;2.63;;;0.80;;
72284;SDS011;60220;53.552;10.092;2024-03-23T13:44:12;3.38;;;0.90;;
72284;SDS011;60220;53.552;10.092;2024-03-23T13:46:41;7.88;;;1.23;;
72284;SDS011;60220;53.552;10.092;2024-03-23T13:49:09;3.78;;;0.88;;
72284;SDS011;60220;53.552;10.092;2024-03-23T13:51:50;3.08;;;0.93;;
72284;SDS011;60220;53.552;10.092;2024-03-23T13:54:16;8.70;;;0.90;;
72284;SDS011;60220;53.552;10.092;2024-03-23T13:56:42;3.58;;;0.60;;
72284;SDS011;60220;53.552;10.092;2024-03-23T13:59:09;1.45;;;0.57;;
72284;SDS011;60220;53.552;10.092;2024-03-23T14:01:37;1.27;;;0.40;;
72284;SDS011;60220;53.552;10.092;2024-03-23T14:04:05;0.20;;;0.20;;
72284;SDS011;60220;53.552;10.092;2024-03-23T14:06:33;0.82;;;0.30;;
72284;SDS011;60220;53.552;10.092;2024-03-23T14:08:58;0.50;;;0.30;;
72284;SDS011;60220;53.552;10.092;2024-03-23T14:11:25;1.50;;;0.47;;
72284;SDS011;60220;53.552;10.092;2024-03-23T14:13:54;3.22;;;0.80;;
72284;SDS011;60220;53.552;10.092;2024-03-23T14:16:20;1.05;;;0.45;;
72284;SDS011;60220;53.552;10.092;2024-03-23T14:18:46;0.73;;;0.30;;
72284;SDS011;60220;53.552;10.092;2024-03-23T14:21:15;0.90;;;0.40;;
72284;SDS011;60220;53.552;10.092;2024-03-23T14:23:42;1.65;;;0.47;;
72284;SDS011;60220;53.552;10.092;2024-03-23T14:26:09;2.30;;;0.52;;
72284;SDS011;60220;53.552;10.092;2024-03-23T14:28:34;3.20;;;1.02;;
72284;SDS011;60220;53.552;10.092;2024-03-23T14:31:01;4.63;;;0.95;;
72284;SDS011;60220;53.552;10.092;2024-03-23T14:33:28;2.38;;;0.43;;
72284;SDS011;60220;53.552;10.092;2024-03-23T14:35:55;3.83;;;0.80;;
72284;SDS011;60220;53.552;10.092;2024-03-23T14:38:24;5.88;;;0.80;;
72284;SDS011;60220;53.552;10.092;2024-03-23T14:40:54;2.15;;;0.88;;
72284;SDS011;60220;53.552;10.092;2024-03-23T14:43:25;3.25;;;0.40;;
72284;SDS011;60220;53.552;10.092;2024-03-23T14:46:08;4.38;;;0.90;;
72284;SDS011;60220;53.552;10.092;2024-03-23T14:48:35;3.20;;;0.57;;
72284;SDS011;60220;53.552;10.092;2024-03-23T14:51:04;2.95;;;1.17;;
72284;SDS011;60220;53.552;10.092;2024-03-23T14:53:31;3.53;;;0.70;;
72284;SDS011;60220;53.552;10.092;2024-03-23T14:56:00;4.32;;;0.85;;
72284;SDS011;60220;53.552;10.092;2024-03-23T14:58:26;1.45;;;0.70;;
72284;SDS011;60220;53.552;10.092;2024-03-23T15:00:53;5.07;;;0.70;;
72284;SDS011;60220;53.552;10.092;2024-03-23T15:03:25;7.07;;;0.90;;
72284;SDS011;60220;53.552;10.092;2024-03-23T15:05:52;2.65;;;0.60;;
72284;SDS011;60220;53.552;10.092;2024-03-23T15:08:20;3.38;;;0.68;;
72284;SDS011;60220;53.552;10.092;2024-03-23T15:10:49;1.35;;;0.50;;
72284;SDS011;60220;53.552;10.092;2024-03-23T15:13:16;0.57;;;0.40;;
72284;SDS011;60220;53.552;10.092;2024-03-23T15:15:45;0.77;;;0.40;;
72284;SDS011;60220;53.552;10.092;2024-03-23T15:18:11;4.28;;;0.45;;
72284;SDS011;60220;53.552;10.092;2024-03-23T15:20:42;5.43;;;1.58;;